Time;durP1;ratioP1;P1;durP2;ratioP2;P2;SDS_P1;SDS_P2;PMS_P1;PMS_P2;Temp;Humidity;BMP_temperature;BMP_pressure;BME280_temperature;BME280_humidity;BME280_pressure;Samples;Min_cycle;Max_cycle;Signal;HPM_P1;HPM_P2
2021/05/27 04:16:08;;;;;;;3.80;2.23;;;;;;;7.67;93.75;98932.81;5557964;23;20157;-73
2021/05/27 04:18:33;;;;;;;2.28;1.83;;;;;;;7.46;94.14;98934.59;4897439;29;20454;-73
2021/05/27 04:20:59;;;;;;;2.75;2.17;;;;;;;7.42;94.67;98932.88;4897319;29;20024;-73
2021/05/27 04:23:39;;;;;;;3.47;2.20;;;;;;;7.42;94.70;98938.03;4897387;29;20092;-73
2021/05/27 04:26:10;;;;;;;4.20;2.45;;;;;;;7.46;94.23;98939.75;4896968;29;20024;-73
2021/05/27 04:28:37;;;;;;;2.55;2.25;;;;;;;7.51;94.94;98936.31;4876309;29;20036;-73
2021/05/27 04:31:08;;;;;;;2.72;2.25;;;;;;;7.50;94.61;98950.06;4887368;29;20032;-73
2021/05/27 04:33:34;;;;;;;3.38;1.95;;;;;;;7.64;94.27;98948.28;4884985;29;20036;-73
2021/05/27 04:35:59;;;;;;;3.10;2.53;;;;;;;7.60;94.51;98944.88;4886092;29;20391;-73
2021/05/27 04:38:24;;;;;;;3.90;2.58;;;;;;;7.62;94.44;98956.03;4885978;29;20483;-74
2021/05/27 04:40:50;;;;;;;4.97;2.22;;;;;;;7.69;93.80;98956.88;4883013;29;20132;-74
2021/05/27 04:43:17;;;;;;;2.28;2.08;;;;;;;8.02;92.63;98955.00;4885776;29;20032;-75
2021/05/27 04:45:43;;;;;;;2.83;2.00;;;;;;;7.96;92.27;98959.31;4884407;29;20690;-73
2021/05/27 04:48:10;;;;;;;2.35;1.88;;;;;;;8.01;91.59;98959.31;4883491;29;20031;-74
2021/05/27 04:50:37;;;;;;;3.70;1.90;;;;;;;8.02;91.32;98957.59;4884091;29;20043;-74
2021/05/27 04:53:04;;;;;;;3.85;1.98;;;;;;;8.00;92.23;98965.34;4885387;29;20164;-74
2021/05/27 04:55:29;;;;;;;5.53;2.10;;;;;;;7.99;93.29;98963.63;4885885;29;20036;-74
2021/05/27 04:57:54;;;;;;;2.50;2.30;;;;;;;8.18;91.94;98970.41;4886425;29;20020;-74
2021/05/27 05:00:22;;;;;;;2.60;2.40;;;;;;;8.23;91.34;98975.56;4885289;29;20394;-74
2021/05/27 05:02:47;;;;;;;2.53;1.90;;;;;;;8.24;91.56;98972.09;4882906;29;20039;-73
2021/05/27 05:05:14;;;;;;;2.33;1.77;;;;;;;8.35;91.27;98978.06;4883241;29;20036;-73
2021/05/27 05:07:41;;;;;;;2.17;1.80;;;;;;;8.49;89.38;98984.03;4878282;29;20761;-73
2021/05/27 05:10:08;;;;;;;3.80;1.70;;;;;;;8.66;89.61;98991.69;4888574;29;20040;-73
2021/05/27 05:12:44;;;;;;;3.95;1.70;;;;;;;8.71;88.64;98989.06;4888618;29;20738;-74
2021/05/27 05:15:21;;;;;;;1.75;1.65;;;;;;;8.57;89.21;98990.88;4888260;29;20478;-73
2021/05/27 05:17:49;;;;;;;4.45;2.60;;;;;;;8.93;88.40;98993.19;4886672;29;20036;-73
2021/05/27 05:20:16;;;;;;;5.30;2.00;;;;;;;8.92;87.31;98996.63;4889508;29;20028;-73
2021/05/27 05:22:41;;;;;;;5.05;2.65;;;;;;;8.84;88.65;99001.00;4887668;29;20029;-74
2021/05/27 05:25:07;;;;;;;3.85;2.83;;;;;;;9.05;87.14;98999.13;4888661;29;20035;-74
2021/05/27 05:27:33;;;;;;;3.72;3.28;;;;;;;9.18;87.53;99001.56;4888107;29;20072;-73
2021/05/27 05:29:58;;;;;;;4.13;2.63;;;;;;;9.36;86.90;99000.56;4886738;29;20123;-74
2021/05/27 05:32:23;;;;;;;3.38;2.10;;;;;;;9.28;87.44;98997.19;4887494;29;20088;-74
2021/05/27 05:34:50;;;;;;;3.97;2.60;;;;;;;9.79;86.16;99003.56;4884623;29;20039;-74
2021/05/27 05:37:15;;;;;;;2.42;2.20;;;;;;;9.73;85.04;99005.38;4888977;29;20076;-74
2021/05/27 05:39:40;;;;;;;1.80;1.70;;;;;;;9.90;84.44;99012.94;4886899;29;20124;-75
2021/05/27 05:42:06;;;;;;;2.60;2.25;;;;;;;9.82;85.33;99014.78;4888902;29;20128;-75
2021/05/27 05:44:31;;;;;;;2.80;1.60;;;;;;;9.99;84.32;99012.81;4886435;29;20174;-74
2021/05/27 05:46:56;;;;;;;2.08;1.88;;;;;;;10.55;82.48;99014.72;4885293;29;20013;-75
2021/05/27 05:49:22;;;;;;;1.60;1.50;;;;;;;10.83;79.66;99009.16;4885753;29;20124;-75
2021/05/27 05:51:47;;;;;;;4.68;1.58;;;;;;;11.19;78.33;99012.03;4887088;29;20039;-75
2021/05/27 05:54:13;;;;;;;3.00;1.60;;;;;;;11.19;77.77;99014.63;4889632;29;20045;-75
2021/05/27 05:56:38;;;;;;;2.35;1.80;;;;;;;11.56;75.87;99007.06;4888180;29;20105;-75
2021/05/27 05:59:03;;;;;;;3.58;1.73;;;;;;;10.70;77.94;99026.59;4887940;29;20124;-75
2021/05/27 06:01:28;;;;;;;2.42;1.40;;;;;;;10.55;80.15;99026.81;4889517;29;20037;-74
2021/05/27 06:03:54;;;;;;;2.60;1.42;;;;;;;10.89;78.09;99014.22;4888686;29;20711;-75
2021/05/27 06:06:19;;;;;;;2.42;1.48;;;;;;;11.21;76.13;99016.28;4887334;29;20037;-75
2021/05/27 06:08:44;;;;;;;4.57;1.52;;;;;;;11.62;73.38;99012.13;4888030;29;20127;-75
2021/05/27 06:11:10;;;;;;;3.67;1.42;;;;;;;11.10;76.50;99025.13;4887944;29;20029;-73
2021/05/27 06:13:35;;;;;;;4.57;1.70;;;;;;;11.29;74.74;99021.34;4887911;29;20032;-73
2021/05/27 06:16:01;;;;;;;1.52;1.40;;;;;;;11.86;72.78;99013.44;4888315;29;20044;-73
2021/05/27 06:18:26;;;;;;;2.50;1.73;;;;;;;12.40;70.30;99013.19;4885704;29;20103;-73
2021/05/27 06:20:51;;;;;;;3.80;1.38;;;;;;;12.57;70.35;99016.28;4888155;29;20666;-74
2021/05/27 06:23:17;;;;;;;2.33;1.60;;;;;;;12.42;68.84;99014.00;4888569;29;20462;-73
2021/05/27 06:25:42;;;;;;;3.45;1.40;;;;;;;12.02;69.67;99016.56;4886933;29;20055;-74
2021/05/27 06:28:08;;;;;;;4.63;1.65;;;;;;;11.36;72.54;99022.94;4887930;29;20032;-74
2021/05/27 06:30:33;;;;;;;3.92;1.70;;;;;;;11.90;71.40;99020.28;4886310;29;20100;-73
2021/05/27 06:33:00;;;;;;;2.83;1.80;;;;;;;12.44;69.43;99020.03;4885578;29;20060;-73
2021/05/27 06:35:26;;;;;;;2.70;1.80;;;;;;;12.51;68.12;99021.59;4887624;29;20060;-74
2021/05/27 06:37:52;;;;;;;1.52;1.38;;;;;;;12.46;68.82;99028.63;4886549;29;20115;-73
2021/05/27 06:40:20;;;;;;;1.40;1.30;;;;;;;12.52;68.13;99022.44;4887299;29;20033;-74
2021/05/27 06:42:46;;;;;;;1.75;1.42;;;;;;;12.69;68.17;99028.13;4887240;29;20032;-73
2021/05/27 06:45:17;;;;;;;2.67;1.45;;;;;;;13.54;65.94;99021.78;4886341;29;20111;-74
2021/05/27 06:47:43;;;;;;;2.35;1.50;;;;;;;14.08;60.41;99022.03;4885740;29;20025;-73
2021/05/27 06:50:09;;;;;;;3.65;1.40;;;;;;;14.81;58.48;99015.56;4886194;29;20051;-74
2021/05/27 06:52:36;;;;;;;3.92;1.25;;;;;;;16.26;54.73;99005.38;4886456;29;20478;-74
2021/05/27 06:55:01;;;;;;;3.35;1.67;;;;;;;17.63;50.24;99012.09;4886980;29;20112;-74
2021/05/27 06:57:28;;;;;;;3.22;1.30;;;;;;;17.66;50.89;99017.22;4868189;29;20096;-74
2021/05/27 06:59:53;;;;;;;1.55;1.00;;;;;;;19.32;44.38;99020.09;4886152;29;20040;-74
2021/05/27 07:02:19;;;;;;;7.90;1.13;;;;;;;19.42;44.84;99006.41;4882767;29;20036;-74
2021/05/27 07:04:45;;;;;;;5.97;1.30;;;;;;;19.55;43.80;99004.03;4887936;29;20056;-74
2021/05/27 07:07:11;;;;;;;3.88;1.23;;;;;;;21.30;41.01;99009.44;4885491;29;20033;-72
2021/05/27 07:09:39;;;;;;;2.28;1.13;;;;;;;20.38;42.00;99016.31;4887007;29;20069;-72
2021/05/27 07:12:05;;;;;;;1.02;0.82;;;;;;;19.03;45.67;99019.75;4886872;29;20029;-73
2021/05/27 07:14:30;;;;;;;3.47;0.98;;;;;;;20.12;44.68;99009.84;4887294;29;20025;-72
2021/05/27 07:16:56;;;;;;;1.30;1.05;;;;;;;20.95;40.93;99015.88;4882906;29;20482;-72
2021/05/27 07:19:21;;;;;;;4.25;1.10;;;;;;;19.16;43.45;99028.75;4885403;29;20127;-72
2021/05/27 07:21:46;;;;;;;2.47;1.20;;;;;;;16.19;50.48;99033.47;4886888;29;20028;-72
2021/05/27 07:24:12;;;;;;;3.25;1.17;;;;;;;15.34;53.46;99031.25;4887784;29;20040;-72
2021/05/27 07:26:37;;;;;;;7.20;1.55;;;;;;;14.92;54.88;99039.56;4885440;29;20075;-74
2021/05/27 07:29:04;;;;;;;7.93;1.10;;;;;;;14.55;58.98;99030.25;4885993;29;20498;-74
2021/05/27 07:31:31;;;;;;;2.40;1.55;;;;;;;14.31;60.10;99028.31;4884940;29;20024;-74
2021/05/27 07:33:56;;;;;;;1.30;1.10;;;;;;;15.29;55.18;99022.72;4886988;29;20032;-75
2021/05/27 07:36:21;;;;;;;2.60;1.00;;;;;;;15.72;51.77;99016.06;4883590;29;20055;-74
2021/05/27 07:38:46;;;;;;;1.15;0.70;;;;;;;15.02;51.12;99030.53;4886475;29;20505;-74
2021/05/27 07:41:12;;;;;;;2.05;1.13;;;;;;;16.44;47.67;99016.91;4886134;29;20040;-74
2021/05/27 07:43:37;;;;;;;4.07;1.10;;;;;;;16.47;47.75;99014.16;4883521;29;20073;-74
2021/05/27 07:46:03;;;;;;;1.58;1.10;;;;;;;18.16;44.20;99011.53;4885549;29;20043;-75
2021/05/27 07:48:28;;;;;;;3.50;1.33;;;;;;;19.25;42.13;99009.91;4876383;29;20033;-75
2021/05/27 07:50:53;;;;;;;2.47;1.23;;;;;;;17.67;45.59;99012.81;4885056;29;20033;-75
2021/05/27 07:53:20;;;;;;;5.10;0.90;;;;;;;18.57;42.90;99011.41;4885662;29;20080;-75
2021/05/27 07:55:47;;;;;;;2.88;1.20;;;;;;;19.20;42.77;99005.81;4884820;29;20029;-75
2021/05/27 07:58:12;;;;;;;1.48;0.95;;;;;;;15.66;49.41;99023.22;4886925;29;20032;-74
2021/05/27 08:00:38;;;;;;;3.75;1.38;;;;;;;15.30;52.76;99025.25;4883966;29;20442;-74
2021/05/27 08:03:03;;;;;;;2.78;1.48;;;;;;;14.65;51.43;99031.69;4885814;29;20115;-74
2021/05/27 08:05:29;;;;;;;2.22;1.02;;;;;;;14.69;52.99;99031.56;4887653;29;20036;-74
2021/05/27 08:07:54;;;;;;;3.05;0.90;;;;;;;14.38;54.69;99025.50;4884594;29;20028;-75
2021/05/27 08:10:20;;;;;;;4.07;2.03;;;;;;;17.69;45.26;99017.06;4884929;29;20496;-75
2021/05/27 08:12:45;;;;;;;4.60;1.10;;;;;;;21.05;38.61;99009.13;4885653;29;20032;-75
2021/05/27 08:15:11;;;;;;;6.03;1.83;;;;;;;22.39;35.40;99009.97;4885195;29;20036;-75
2021/05/27 08:17:37;;;;;;;3.03;1.33;;;;;;;19.67;39.29;99021.81;4884891;29;20164;-75
2021/05/27 08:20:04;;;;;;;3.90;1.00;;;;;;;16.92;45.42;99029.00;4886229;29;21406;-74
2021/05/27 08:22:30;;;;;;;4.28;1.52;;;;;;;16.15;46.20;99031.91;4886524;29;20033;-74
2021/05/27 08:24:55;;;;;;;2.13;1.02;;;;;;;18.44;42.03;99031.28;4886753;29;20043;-74
2021/05/27 08:27:21;;;;;;;1.52;1.15;;;;;;;20.76;36.65;99019.53;4884961;29;20029;-74
2021/05/27 08:29:47;;;;;;;2.28;0.80;;;;;;;21.08;35.69;99018.63;4883843;29;20060;-75
2021/05/27 08:32:12;;;;;;;1.20;0.85;;;;;;;21.74;34.68;99020.94;4886705;29;20043;-74
2021/05/27 08:34:38;;;;;;;3.33;0.93;;;;;;;22.77;32.48;99011.03;4869002;29;20041;-74
2021/05/27 08:37:04;;;;;;;5.10;1.58;;;;;;;24.27;29.72;99011.56;4885983;29;20028;-74
2021/05/27 08:39:29;;;;;;;3.22;1.10;;;;;;;21.43;33.86;99009.59;4886210;29;20546;-74
2021/05/27 08:41:57;;;;;;;2.15;1.10;;;;;;;19.07;41.02;99025.72;4883763;29;20054;-75
2021/05/27 08:44:22;;;;;;;2.40;1.25;;;;;;;17.67;42.52;99026.75;4885750;29;20043;-75
2021/05/27 08:46:48;;;;;;;3.70;0.95;;;;;;;16.73;44.49;99028.03;4883010;29;20036;-74
2021/05/27 08:49:14;;;;;;;2.17;1.08;;;;;;;19.84;38.98;99006.97;4868953;29;20120;-74
2021/05/27 08:51:40;;;;;;;2.25;1.13;;;;;;;19.98;37.68;99007.94;4885018;29;20112;-74
2021/05/27 08:54:05;;;;;;;3.20;1.17;;;;;;;20.60;37.00;99007.28;4884886;29;20032;-74
2021/05/27 08:56:32;;;;;;;2.20;1.00;;;;;;;22.35;33.99;99003.19;4885434;29;20040;-74
2021/05/27 08:58:57;;;;;;;3.22;1.13;;;;;;;23.70;30.81;98996.13;4885313;29;20451;-74
2021/05/27 09:01:23;;;;;;;3.90;1.00;;;;;;;24.35;29.95;98995.97;4883912;29;20040;-75
2021/05/27 09:03:50;;;;;;;2.17;1.13;;;;;;;22.44;32.55;99005.25;4884803;29;20116;-74
2021/05/27 09:06:16;;;;;;;2.42;1.05;;;;;;;20.35;36.14;99015.63;4884915;29;20067;-74
2021/05/27 09:08:43;;;;;;;5.63;0.85;;;;;;;18.60;38.63;99024.38;4885847;29;20422;-75
2021/05/27 09:11:14;;;;;;;2.83;0.88;;;;;;;17.80;39.63;99024.50;4884354;29;20028;-75
2021/05/27 09:13:58;;;;;;;13.10;7.25;;;;;;;17.02;42.92;99022.50;4887276;29;20052;-75
2021/05/27 09:16:25;;;;;;;5.60;1.75;;;;;;;19.19;38.98;99020.69;4883942;29;20163;-74
2021/05/27 09:18:52;;;;;;;3.58;1.20;;;;;;;22.06;34.88;99013.72;4885932;29;20443;-74
2021/05/27 09:21:33;;;;;;;3.15;1.20;;;;;;;25.00;28.61;99010.75;4886665;29;20056;-74
2021/05/27 09:23:58;;;;;;;3.47;0.80;;;;;;;23.41;29.87;99021.03;4886471;29;20033;-75
2021/05/27 09:26:23;;;;;;;2.88;1.27;;;;;;;19.58;36.90;99031.91;4884486;29;20028;-74
2021/05/27 09:28:49;;;;;;;1.95;1.00;;;;;;;17.86;41.60;99026.00;4884996;29;20024;-74
2021/05/27 09:31:18;;;;;;;2.58;1.00;;;;;;;17.31;42.76;99030.91;4883536;29;20763;-73
2021/05/27 09:33:48;;;;;;;1.80;1.10;;;;;;;16.58;43.49;99030.28;4885114;29;20040;-75
2021/05/27 09:36:18;;;;;;;2.17;1.20;;;;;;;16.39;44.07;99034.50;4883681;29;20771;-75
2021/05/27 09:38:54;;;;;;;1.85;0.80;;;;;;;16.05;45.29;99046.22;4885516;29;20036;-75
2021/05/27 09:41:23;;;;;;;1.88;0.98;;;;;;;16.25;45.48;99036.81;4885130;29;20032;-73
2021/05/27 09:44:16;;;;;;;1.42;1.33;;;;;;;16.74;43.02;99040.22;4884773;29;20646;-73
2021/05/27 09:46:58;;;;;;;1.52;0.90;;;;;;;16.64;43.17;99037.91;4881285;29;20079;-73
2021/05/27 09:49:25;;;;;;;3.88;1.30;;;;;;;15.98;45.95;99044.72;4886445;29;20490;-74
2021/05/27 09:51:52;;;;;;;5.45;1.45;;;;;;;15.55;46.58;99048.78;4866618;29;20041;-73
2021/05/27 09:54:17;;;;;;;3.72;1.05;;;;;;;15.47;47.55;99047.34;4888411;29;20081;-74
2021/05/27 09:56:42;;;;;;;1.02;0.85;;;;;;;15.12;47.95;99055.41;4884967;29;20541;-74
2021/05/27 09:59:10;;;;;;;2.15;1.02;;;;;;;15.03;48.63;99053.09;4888878;29;20043;-73
2021/05/27 10:01:35;;;;;;;3.17;1.20;;;;;;;15.57;48.37;99049.63;4893062;29;20119;-73
2021/05/27 10:04:10;;;;;;;1.75;1.15;;;;;;;15.81;46.83;99047.06;4905274;29;21342;-73
2021/05/27 10:06:35;;;;;;;1.95;0.98;;;;;;;16.44;47.07;99048.28;4907220;29;20071;-73
2021/05/27 10:09:01;;;;;;;2.28;1.02;;;;;;;19.86;40.31;99029.59;4906843;29;20082;-74
2021/05/27 10:11:26;;;;;;;1.98;0.85;;;;;;;20.28;36.18;99029.13;4907511;29;20035;-74
2021/05/27 10:13:52;;;;;;;5.78;3.00;;;;;;;21.34;34.90;99025.09;4907022;29;20032;-74
2021/05/27 10:16:20;;;;;;;5.10;2.70;;;;;;;19.21;38.19;99034.63;4905082;29;20039;-73
2021/05/27 10:18:48;;;;;;;2.03;0.90;;;;;;;17.36;40.92;99039.47;4907699;29;20449;-73
2021/05/27 10:21:13;;;;;;;1.52;0.90;;;;;;;16.47;44.22;99042.94;4904570;29;20043;-73
2021/05/27 10:23:39;;;;;;;1.83;0.93;;;;;;;15.85;46.69;99043.44;4907485;29;20469;-73
2021/05/27 10:26:05;;;;;;;3.88;1.02;;;;;;;15.53;47.61;99042.78;4903209;29;20028;-73
2021/05/27 10:28:31;;;;;;;2.25;0.90;;;;;;;15.36;47.98;99050.31;4906076;29;20115;-74
2021/05/27 10:30:58;;;;;;;2.55;1.33;;;;;;;15.29;48.63;99048.81;4941596;23;20032;-73
2021/05/27 10:33:25;;;;;;;1.35;1.25;;;;;;;14.86;50.36;99050.19;4890185;29;20036;-76
2021/05/27 10:36:00;;;;;;;1.85;1.05;;;;;;;14.58;50.17;99051.00;4890389;29;20497;-76
2021/05/27 10:41:05;;;;;;;2.60;1.30;;;;;;;14.77;51.45;99053.06;4890121;29;20075;-76
2021/05/27 10:43:32;;;;;;;5.35;1.20;;;;;;;15.03;51.00;99053.09;4889918;29;20099;-76
2021/05/27 10:45:58;;;;;;;3.53;1.23;;;;;;;14.78;50.99;99052.16;4890247;29;20039;-77
2021/05/27 10:48:25;;;;;;;1.80;1.17;;;;;;;14.66;51.73;99058.63;4889186;29;20028;-76
2021/05/27 10:53:36;;;;;;;3.45;1.52;;;;;;;13.92;54.32;99065.03;4890246;29;20024;-76
2021/05/27 10:56:05;;;;;;;5.40;1.60;;;;;;;13.78;54.67;99061.94;4890198;29;20040;-76
2021/05/27 10:58:55;;;;;;;5.78;1.25;;;;;;;14.30;55.14;99060.50;4890286;29;20429;-76
2021/05/27 11:01:30;;;;;;;14.25;8.70;;;;;;;14.58;54.11;99058.84;4889044;29;20056;-76
2021/05/27 11:03:56;;;;;;;4.05;1.38;;;;;;;14.42;52.92;99054.09;4890321;29;20042;-76
2021/05/27 11:06:41;;;;;;;3.50;1.60;;;;;;;15.60;51.20;99052.09;4889629;29;20029;-76
2021/05/27 11:09:24;;;;;;;2.60;1.08;;;;;;;15.71;49.38;99043.94;4889901;29;20044;-76
2021/05/27 11:12:00;;;;;;;3.67;2.05;;;;;;;16.21;48.46;99040.44;4889442;29;20033;-76
2021/05/27 11:15:06;;;;;;;2.72;1.20;;;;;;;16.05;49.14;99046.22;4889591;29;20031;-76
2021/05/27 11:17:31;;;;;;;22.33;12.90;;;;;;;16.26;48.15;99041.13;4889739;29;20037;-76
2021/05/27 11:20:27;;;;;;;2.33;1.40;;;;;;;16.41;48.19;99044.03;4889544;29;20028;-76
2021/05/27 11:23:00;;;;;;;2.70;1.30;;;;;;;17.51;45.93;99036.22;4887948;29;20467;-76
2021/05/27 11:25:30;;;;;;;2.40;1.58;;;;;;;19.85;41.65;99025.28;4889106;29;20051;-77
2021/05/27 11:28:02;;;;;;;3.03;1.10;;;;;;;20.60;39.48;99021.31;4889209;29;20074;-76
2021/05/27 11:30:37;;;;;;;1.88;0.95;;;;;;;21.42;37.71;99013.16;4885130;29;21007;-75
2021/05/27 11:33:04;;;;;;;1.42;1.20;;;;;;;19.69;39.43;99029.66;4888649;29;20051;-75
2021/05/27 11:35:31;;;;;;;4.63;1.65;;;;;;;18.16;42.73;99032.50;4888055;29;20789;-75
2021/05/27 11:37:57;;;;;;;1.58;1.10;;;;;;;17.17;45.56;99034.97;4884243;29;20092;-75
2021/05/27 11:40:32;;;;;;;9.25;3.35;;;;;;;16.70;47.71;99040.28;4885385;29;20036;-75
2021/05/27 11:42:58;;;;;;;2.95;1.30;;;;;;;17.06;45.32;99034.53;4889024;29;20048;-75
2021/05/27 11:45:25;;;;;;;6.90;1.75;;;;;;;17.33;43.04;99023.88;4888717;29;20525;-75
2021/05/27 11:48:25;;;;;;;5.20;1.10;;;;;;;16.99;43.95;99029.63;4887833;29;20060;-75
2021/05/27 11:51:04;;;;;;;1.80;1.10;;;;;;;18.41;42.88;99015.66;4888790;29;20080;-75
2021/05/27 11:53:46;;;;;;;1.75;1.08;;;;;;;18.37;42.45;99014.09;4889047;29;21277;-75
2021/05/27 11:56:12;;;;;;;2.35;1.10;;;;;;;17.99;42.11;99014.06;4888763;29;20181;-75
2021/05/27 11:58:40;;;;;;;1.05;0.80;;;;;;;17.04;44.80;99015.44;4884808;29;20025;-75
2021/05/27 12:01:17;;;;;;;3.25;1.40;;;;;;;16.86;44.98;99008.31;4888750;29;20025;-75
2021/05/27 12:04:02;;;;;;;3.13;1.63;;;;;;;16.05;47.38;99019.22;4888419;29;20085;-75
2021/05/27 12:06:27;;;;;;;1.10;1.00;;;;;;;16.08;47.47;99019.97;4889120;29;20039;-75
2021/05/27 12:08:53;;;;;;;4.25;1.20;;;;;;;16.44;44.46;99023.00;4889506;29;20028;-75
2021/05/27 12:11:29;;;;;;;2.15;0.80;;;;;;;16.42;45.50;99014.34;4885256;29;20123;-75
2021/05/27 12:14:02;;;;;;;9.68;1.13;;;;;;;16.47;46.57;99014.16;4889598;29;20058;-75
2021/05/27 12:16:33;;;;;;;5.13;1.23;;;;;;;16.18;47.26;99016.09;4871745;29;20115;-75
2021/05/27 12:19:00;;;;;;;1.90;0.80;;;;;;;16.00;46.25;99011.53;4889087;29;20496;-75
2021/05/27 12:21:25;;;;;;;1.83;0.95;;;;;;;16.03;46.62;99021.91;4889309;29;20093;-75
2021/05/27 12:23:50;;;;;;;13.07;1.50;;;;;;;16.21;47.67;99014.31;4888672;29;20036;-75
2021/05/27 12:26:16;;;;;;;1.17;0.93;;;;;;;16.38;47.31;99017.13;4889004;29;20107;-75
2021/05/27 12:28:41;;;;;;;2.55;1.38;;;;;;;17.42;42.85;99005.16;4889156;29;20039;-75
2021/05/27 12:31:07;;;;;;;2.90;1.52;;;;;;;18.46;42.41;99005.78;4889249;29;20120;-75
2021/05/27 12:33:33;;;;;;;1.23;0.90;;;;;;;18.72;40.22;99009.88;4889470;29;20044;-75
2021/05/27 12:36:09;;;;;;;21.20;12.55;;;;;;;19.19;40.45;98999.66;4871922;29;20724;-76
2021/05/27 12:38:43;;;;;;;5.95;1.50;;;;;;;18.59;42.80;99004.31;4889213;29;20374;-75
2021/05/27 12:41:10;;;;;;;3.25;1.30;;;;;;;18.11;43.13;99008.25;4889142;29;20553;-75
2021/05/27 12:43:54;;;;;;;0.98;0.95;;;;;;;17.87;42.76;98994.47;4871590;29;20041;-75
2021/05/27 12:46:33;;;;;;;2.92;0.90;;;;;;;17.71;44.28;99010.00;4888215;29;20044;-75
2021/05/27 12:48:58;;;;;;;1.92;0.98;;;;;;;17.67;44.14;99012.81;4888972;29;20120;-73
2021/05/27 12:51:27;;;;;;;4.95;1.15;;;;;;;17.75;43.67;99012.53;4887735;29;20124;-72
2021/05/27 12:53:54;;;;;;;4.10;0.82;;;;;;;17.40;43.43;99010.44;4887764;29;20040;-71
2021/05/27 12:56:23;;;;;;;1.52;0.80;;;;;;;17.00;42.32;99016.47;4886650;29;20043;-71
2021/05/27 12:58:51;;;;;;;2.13;0.80;;;;;;;17.36;42.70;99013.28;4885856;29;20047;-71
2021/05/27 13:01:29;;;;;;;16.20;6.07;;;;;;;17.60;42.81;99017.47;4887701;29;20132;-71
2021/05/27 13:03:54;;;;;;;1.40;0.90;;;;;;;17.30;43.89;99023.97;4887593;29;20394;-71
2021/05/27 13:06:22;;;;;;;3.00;1.20;;;;;;;16.78;45.19;99026.06;4887445;29;20040;-71
2021/05/27 13:08:54;;;;;;;0.82;0.80;;;;;;;16.94;45.65;99024.56;4886919;29;20072;-71
2021/05/27 13:11:21;;;;;;;3.00;1.10;;;;;;;16.77;44.94;99030.47;4887323;29;20660;-72
2021/05/27 13:13:47;;;;;;;2.97;1.10;;;;;;;16.66;45.39;99027.38;4887559;29;20032;-71
2021/05/27 13:16:39;;;;;;;1.05;0.80;;;;;;;16.69;45.41;99030.75;4886806;29;20033;-71
2021/05/27 13:19:07;;;;;;;2.05;0.82;;;;;;;16.69;44.89;99019.44;4887147;29;20068;-71
2021/05/27 13:21:56;;;;;;;3.25;0.82;;;;;;;16.88;45.30;99027.44;4886443;29;20029;-71
2021/05/27 13:24:21;;;;;;;2.92;0.90;;;;;;;16.84;46.30;99031.94;4887494;29;20040;-71
2021/05/27 13:26:59;;;;;;;2.00;0.88;;;;;;;16.65;47.29;99030.91;4888083;29;20032;-71
2021/05/27 13:29:25;;;;;;;1.48;0.90;;;;;;;16.24;45.84;99035.09;4844951;29;20048;-71
2021/05/27 13:31:50;;;;;;;1.33;0.75;;;;;;;16.56;44.90;99031.28;4841436;29;20108;-71
2021/05/27 13:34:16;;;;;;;2.03;0.90;;;;;;;16.69;45.29;99038.59;4889786;29;20036;-71
2021/05/27 13:36:44;;;;;;;1.52;0.90;;;;;;;16.30;45.80;99040.09;4890845;29;20058;-71
2021/05/27 13:39:16;;;;;;;1.52;0.80;;;;;;;16.59;46.88;99044.25;4891120;29;20035;-71
2021/05/27 13:41:42;;;;;;;3.90;1.00;;;;;;;16.58;46.51;99045.97;4890841;29;20033;-71
2021/05/27 13:44:07;;;;;;;1.15;0.88;;;;;;;16.49;46.71;99042.84;4890300;29;20024;-71
2021/05/27 13:46:32;;;;;;;1.95;1.23;;;;;;;16.69;47.34;99049.06;4890420;29;20635;-71
2021/05/27 13:48:58;;;;;;;1.77;1.25;;;;;;;16.48;48.32;99044.63;4890952;29;21371;-71
2021/05/27 13:51:23;;;;;;;5.10;1.73;;;;;;;16.19;48.19;99043.94;4891160;29;20039;-71
2021/05/27 13:53:49;;;;;;;2.70;1.00;;;;;;;16.38;48.95;99045.88;4890904;29;21522;-72
2021/05/27 13:56:20;;;;;;;1.20;0.95;;;;;;;15.83;49.43;99045.28;4889574;29;20459;-71
2021/05/27 13:58:46;;;;;;;5.65;1.48;;;;;;;15.61;48.20;99045.97;4890751;29;20513;-73
2021/05/27 14:01:11;;;;;;;3.63;1.13;;;;;;;15.92;48.88;99050.19;4890906;29;20032;-71
2021/05/27 14:03:37;;;;;;;3.55;1.35;;;;;;;15.60;49.75;99053.88;4890496;29;21441;-72
2021/05/27 14:06:06;;;;;;;3.30;0.88;;;;;;;15.83;50.11;99055.72;4890499;29;20028;-73
2021/05/27 14:08:33;;;;;;;4.88;1.88;;;;;;;15.93;49.87;99051.88;4889499;29;20140;-72
2021/05/27 14:10:59;;;;;;;2.83;0.95;;;;;;;15.89;49.74;99050.28;4890396;29;20040;-72
2021/05/27 14:13:24;;;;;;;1.95;1.10;;;;;;;15.58;50.00;99060.91;4890621;29;20501;-72
2021/05/27 14:15:49;;;;;;;1.60;1.10;;;;;;;15.55;49.34;99059.25;4890375;29;21293;-72
2021/05/27 14:18:14;;;;;;;2.65;1.58;;;;;;;15.60;49.06;99065.16;4889810;29;20032;-72
2021/05/27 14:20:40;;;;;;;1.30;1.17;;;;;;;15.46;50.74;99071.75;4889699;29;20044;-72
2021/05/27 14:23:05;;;;;;;2.75;1.10;;;;;;;15.71;49.88;99067.44;4871328;29;20116;-72
2021/05/27 14:25:31;;;;;;;2.08;1.30;;;;;;;15.76;50.85;99070.78;4890324;29;20056;-72
2021/05/27 14:27:56;;;;;;;4.63;1.40;;;;;;;15.60;50.74;99080.84;4890047;29;20052;-72
2021/05/27 14:30:22;;;;;;;2.95;1.15;;;;;;;15.52;52.07;99080.25;4889442;29;20043;-72
2021/05/27 14:32:47;;;;;;;4.20;1.20;;;;;;;15.75;50.09;99078.66;4889544;29;20036;-72
2021/05/27 14:35:13;;;;;;;3.45;1.38;;;;;;;15.81;50.51;99078.44;4873252;29;20099;-72
2021/05/27 14:37:38;;;;;;;1.25;1.10;;;;;;;15.84;48.96;99073.97;4889709;29;20085;-71
2021/05/27 14:40:05;;;;;;;3.22;1.20;;;;;;;15.75;49.74;99089.09;4887964;29;20032;-72
2021/05/27 14:42:30;;;;;;;1.95;1.50;;;;;;;15.84;49.72;99080.94;4890117;29;20064;-73
2021/05/27 14:44:56;;;;;;;4.80;0.82;;;;;;;15.81;49.44;99081.03;4889062;29;20216;-73
2021/05/27 14:47:21;;;;;;;1.70;1.05;;;;;;;15.55;49.21;99082.75;4889185;29;20076;-73
2021/05/27 14:49:47;;;;;;;1.05;0.70;;;;;;;15.29;49.21;99090.59;4889689;29;20039;-73
2021/05/27 14:52:12;;;;;;;4.65;1.00;;;;;;;15.11;50.15;99092.88;4889837;29;20028;-72
2021/05/27 14:54:37;;;;;;;2.35;1.10;;;;;;;15.02;50.87;99094.91;4889745;29;20123;-73
2021/05/27 14:57:04;;;;;;;1.15;1.05;;;;;;;15.14;50.67;99102.38;4889651;29;20067;-72
2021/05/27 14:59:30;;;;;;;2.22;1.10;;;;;;;15.14;51.16;99097.16;4889834;29;20044;-72
2021/05/27 15:01:55;;;;;;;2.78;1.27;;;;;;;15.01;52.31;99104.50;4889675;29;20505;-72
2021/05/27 15:04:20;;;;;;;2.85;0.95;;;;;;;14.95;51.98;99096.03;4889727;29;20087;-72
2021/05/27 15:06:46;;;;;;;2.45;1.20;;;;;;;15.01;52.02;99099.28;4889395;29;20032;-72
2021/05/27 15:09:11;;;;;;;1.63;1.33;;;;;;;15.13;52.34;99101.53;4889584;29;20059;-72
2021/05/27 15:11:36;;;;;;;4.30;1.35;;;;;;;15.20;51.35;99104.78;4889436;29;20039;-72
2021/05/27 15:14:03;;;;;;;3.35;0.90;;;;;;;15.38;51.44;99100.75;4887705;29;20036;-72
2021/05/27 15:16:29;;;;;;;3.33;1.17;;;;;;;15.36;50.14;99100.78;4889079;29;20088;-72
2021/05/27 15:18:55;;;;;;;2.55;1.27;;;;;;;15.51;49.62;99096.81;4889433;29;20020;-73
2021/05/27 15:21:20;;;;;;;1.70;1.50;;;;;;;15.46;49.69;99103.09;4889425;29;20029;-73
2021/05/27 15:23:46;;;;;;;3.63;1.10;;;;;;;15.24;49.44;99102.94;4889295;29;20080;-72
2021/05/27 15:26:11;;;;;;;1.60;0.95;;;;;;;15.43;49.08;99112.75;4889449;29;20035;-72
2021/05/27 15:28:37;;;;;;;2.17;0.90;;;;;;;15.51;48.77;99107.25;4888784;29;20043;-72
2021/05/27 15:31:02;;;;;;;1.92;1.00;;;;;;;15.58;48.45;99108.78;4888908;29;20144;-72
2021/05/27 15:33:27;;;;;;;3.58;0.95;;;;;;;15.63;49.73;99112.13;4889116;29;20043;-72
2021/05/27 15:35:53;;;;;;;2.10;0.90;;;;;;;15.79;48.24;99119.44;4889129;29;20381;-72
2021/05/27 15:38:19;;;;;;;2.17;0.93;;;;;;;15.74;48.83;99121.34;4888735;29;20048;-72
2021/05/27 15:40:47;;;;;;;0.98;0.80;;;;;;;16.03;48.13;99112.53;4888980;29;20040;-72
2021/05/27 15:43:13;;;;;;;4.97;1.10;;;;;;;15.85;47.46;99119.22;4888904;29;20084;-72
2021/05/27 15:45:39;;;;;;;3.40;1.10;;;;;;;15.99;48.09;99119.63;4888833;29;20037;-72
2021/05/27 15:48:05;;;;;;;4.72;1.30;;;;;;;15.78;48.14;99125.59;4888607;29;20047;-73
2021/05/27 15:50:30;;;;;;;2.55;0.93;;;;;;;15.75;48.89;99121.31;4884926;29;20088;-73
2021/05/27 15:52:58;;;;;;;2.45;1.20;;;;;;;15.86;49.43;99121.81;4888828;29;20028;-72
2021/05/27 15:55:23;;;;;;;14.68;9.32;;;;;;;16.19;48.75;99106.69;4888695;29;20039;-72
2021/05/27 15:57:49;;;;;;;5.68;1.50;;;;;;;16.06;48.28;99109.81;4888492;29;20020;-72